sensor_id;sensor_type;location;lat;lon;timestamp;P1;durP1;ratioP1;P2;durP2;ratioP2
59366;SDS011;45163;47.690;11.770;2023-04-03T00:00:51;5.73;;;4.80;;
59366;SDS011;45163;47.690;11.770;2023-04-03T00:03:17;5.70;;;4.70;;
59366;SDS011;45163;47.690;11.770;2023-04-03T00:05:45;5.23;;;4.57;;
59366;SDS011;45163;47.690;11.770;2023-04-03T00:08:11;5.20;;;4.47;;
59366;SDS011;45163;47.690;11.770;2023-04-03T00:10:37;4.33;;;3.93;;
59366;SDS011;45163;47.690;11.770;2023-04-03T00:13:04;4.90;;;4.13;;
59366;SDS011;45163;47.690;11.770;2023-04-03T00:15:31;5.13;;;4.37;;
59366;SDS011;45163;47.690;11.770;2023-04-03T00:17:57;4.83;;;4.07;;
59366;SDS011;45163;47.690;11.770;2023-04-03T00:20:23;5.50;;;4.37;;
59366;SDS011;45163;47.690;11.770;2023-04-03T00:22:49;5.63;;;3.73;;
59366;SDS011;45163;47.690;11.770;2023-04-03T00:25:15;5.67;;;4.43;;
59366;SDS011;45163;47.690;11.770;2023-04-03T00:27:41;4.73;;;4.10;;
59366;SDS011;45163;47.690;11.770;2023-04-03T00:30:16;4.60;;;3.83;;
59366;SDS011;45163;47.690;11.770;2023-04-03T00:32:43;5.80;;;4.60;;
59366;SDS011;45163;47.690;11.770;2023-04-03T00:35:10;4.83;;;4.10;;
59366;SDS011;45163;47.690;11.770;2023-04-03T00:37:36;4.10;;;3.70;;
59366;SDS011;45163;47.690;11.770;2023-04-03T00:40:03;4.43;;;3.73;;
59366;SDS011;45163;47.690;11.770;2023-04-03T00:42:29;4.30;;;3.90;;
59366;SDS011;45163;47.690;11.770;2023-04-03T00:47:21;4.70;;;4.17;;
59366;SDS011;45163;47.690;11.770;2023-04-03T00:49:48;4.87;;;4.20;;
59366;SDS011;45163;47.690;11.770;2023-04-03T00:52:17;4.20;;;3.80;;
59366;SDS011;45163;47.690;11.770;2023-04-03T00:54:47;4.80;;;4.03;;
59366;SDS011;45163;47.690;11.770;2023-04-03T00:57:15;5.03;;;4.53;;
59366;SDS011;45163;47.690;11.770;2023-04-03T00:59:48;4.43;;;4.03;;
59366;SDS011;45163;47.690;11.770;2023-04-03T01:02:17;5.23;;;4.57;;
59366;SDS011;45163;47.690;11.770;2023-04-03T01:04:44;4.63;;;3.80;;
59366;SDS011;45163;47.690;11.770;2023-04-03T01:09:48;5.03;;;4.30;;
59366;SDS011;45163;47.690;11.770;2023-04-03T01:14:45;5.43;;;4.43;;
59366;SDS011;45163;47.690;11.770;2023-04-03T01:22:49;4.93;;;4.33;;
59366;SDS011;45163;47.690;11.770;2023-04-03T01:25:24;4.23;;;3.83;;
59366;SDS011;45163;47.690;11.770;2023-04-03T01:27:50;4.07;;;3.63;;
59366;SDS011;45163;47.690;11.770;2023-04-03T01:30:17;4.60;;;4.13;;
59366;SDS011;45163;47.690;11.770;2023-04-03T01:32:44;4.30;;;3.83;;
59366;SDS011;45163;47.690;11.770;2023-04-03T01:35:10;4.47;;;4.00;;
59366;SDS011;45163;47.690;11.770;2023-04-03T01:37:36;4.10;;;3.70;;
59366;SDS011;45163;47.690;11.770;2023-04-03T01:40:03;4.17;;;3.77;;
59366;SDS011;45163;47.690;11.770;2023-04-03T01:42:29;4.10;;;3.70;;
59366;SDS011;45163;47.690;11.770;2023-04-03T01:44:55;4.97;;;3.53;;
59366;SDS011;45163;47.690;11.770;2023-04-03T01:47:21;4.50;;;3.97;;
59366;SDS011;45163;47.690;11.770;2023-04-03T01:49:48;4.40;;;3.63;;
59366;SDS011;45163;47.690;11.770;2023-04-03T01:52:14;4.10;;;3.70;;
59366;SDS011;45163;47.690;11.770;2023-04-03T01:54:40;4.37;;;3.77;;
59366;SDS011;45163;47.690;11.770;2023-04-03T01:57:06;4.53;;;4.00;;
59366;SDS011;45163;47.690;11.770;2023-04-03T01:59:32;4.27;;;3.87;;
59366;SDS011;45163;47.690;11.770;2023-04-03T02:01:58;4.47;;;3.77;;
59366;SDS011;45163;47.690;11.770;2023-04-03T02:04:24;4.63;;;3.80;;
59366;SDS011;45163;47.690;11.770;2023-04-03T02:06:50;4.83;;;3.87;;
59366;SDS011;45163;47.690;11.770;2023-04-03T02:09:16;4.23;;;3.83;;
59366;SDS011;45163;47.690;11.770;2023-04-03T02:11:42;4.27;;;3.87;;
59366;SDS011;45163;47.690;11.770;2023-04-03T02:14:07;4.50;;;3.93;;
59366;SDS011;45163;47.690;11.770;2023-04-03T02:16:33;4.70;;;4.20;;
59366;SDS011;45163;47.690;11.770;2023-04-03T02:18:59;5.97;;;4.70;;
59366;SDS011;45163;47.690;11.770;2023-04-03T02:21:25;5.23;;;4.53;;
59366;SDS011;45163;47.690;11.770;2023-04-03T02:23:51;4.57;;;4.13;;
59366;SDS011;45163;47.690;11.770;2023-04-03T02:26:17;6.10;;;4.80;;
59366;SDS011;45163;47.690;11.770;2023-04-03T02:28:43;4.90;;;4.40;;
59366;SDS011;45163;47.690;11.770;2023-04-03T02:31:09;5.37;;;4.77;;
59366;SDS011;45163;47.690;11.770;2023-04-03T02:33:36;5.43;;;4.80;;
59366;SDS011;45163;47.690;11.770;2023-04-03T02:36:03;6.00;;;4.83;;
59366;SDS011;45163;47.690;11.770;2023-04-03T02:38:31;6.57;;;5.53;;
59366;SDS011;45163;47.690;11.770;2023-04-03T02:41:00;5.63;;;5.00;;
59366;SDS011;45163;47.690;11.770;2023-04-03T02:43:27;6.43;;;5.10;;
59366;SDS011;45163;47.690;11.770;2023-04-03T02:45:53;6.03;;;5.20;;
59366;SDS011;45163;47.690;11.770;2023-04-03T02:48:20;6.20;;;5.13;;
59366;SDS011;45163;47.690;11.770;2023-04-03T02:50:46;5.87;;;5.13;;
59366;SDS011;45163;47.690;11.770;2023-04-03T02:53:12;6.33;;;5.53;;
59366;SDS011;45163;47.690;11.770;2023-04-03T02:55:38;4.40;;;3.80;;
59366;SDS011;45163;47.690;11.770;2023-04-03T02:58:04;4.97;;;4.47;;
59366;SDS011;45163;47.690;11.770;2023-04-03T03:00:30;5.53;;;4.00;;
59366;SDS011;45163;47.690;11.770;2023-04-03T03:02:56;5.60;;;4.27;;
59366;SDS011;45163;47.690;11.770;2023-04-03T03:05:22;5.27;;;4.33;;
59366;SDS011;45163;47.690;11.770;2023-04-03T03:07:48;5.93;;;4.93;;
59366;SDS011;45163;47.690;11.770;2023-04-03T03:10:14;7.57;;;5.70;;
59366;SDS011;45163;47.690;11.770;2023-04-03T03:12:40;7.37;;;5.73;;
59366;SDS011;45163;47.690;11.770;2023-04-03T03:15:06;7.20;;;5.70;;
59366;SDS011;45163;47.690;11.770;2023-04-03T03:17:33;5.63;;;4.97;;
59366;SDS011;45163;47.690;11.770;2023-04-03T03:19:59;6.03;;;5.10;;
59366;SDS011;45163;47.690;11.770;2023-04-03T03:22:25;6.10;;;5.13;;
59366;SDS011;45163;47.690;11.770;2023-04-03T03:24:51;7.43;;;5.87;;
59366;SDS011;45163;47.690;11.770;2023-04-03T03:27:17;6.93;;;5.80;;
59366;SDS011;45163;47.690;11.770;2023-04-03T03:29:43;6.87;;;5.50;;
59366;SDS011;45163;47.690;11.770;2023-04-03T03:32:09;7.07;;;5.70;;
59366;SDS011;45163;47.690;11.770;2023-04-03T03:34:38;4.77;;;4.27;;
59366;SDS011;45163;47.690;11.770;2023-04-03T03:37:04;5.47;;;4.40;;
59366;SDS011;45163;47.690;11.770;2023-04-03T03:39:30;5.17;;;4.20;;
59366;SDS011;45163;47.690;11.770;2023-04-03T03:41:56;6.30;;;4.90;;
59366;SDS011;45163;47.690;11.770;2023-04-03T03:44:22;5.07;;;4.53;;
59366;SDS011;45163;47.690;11.770;2023-04-03T03:46:48;5.43;;;4.80;;
59366;SDS011;45163;47.690;11.770;2023-04-03T03:49:14;4.93;;;4.40;;
59366;SDS011;45163;47.690;11.770;2023-04-03T03:51:40;5.63;;;4.97;;
59366;SDS011;45163;47.690;11.770;2023-04-03T03:54:09;6.07;;;5.33;;
59366;SDS011;45163;47.690;11.770;2023-04-03T03:56:35;7.97;;;5.73;;
59366;SDS011;45163;47.690;11.770;2023-04-03T03:59:01;8.33;;;6.40;;
59366;SDS011;45163;47.690;11.770;2023-04-03T04:01:27;7.53;;;5.93;;
59366;SDS011;45163;47.690;11.770;2023-04-03T04:03:53;7.20;;;5.50;;
59366;SDS011;45163;47.690;11.770;2023-04-03T04:06:20;6.57;;;5.40;;
59366;SDS011;45163;47.690;11.770;2023-04-03T04:08:47;6.13;;;4.83;;
59366;SDS011;45163;47.690;11.770;2023-04-03T04:11:13;5.70;;;4.10;;
59366;SDS011;45163;47.690;11.770;2023-04-03T04:13:39;4.60;;;4.20;;
59366;SDS011;45163;47.690;11.770;2023-04-03T04:16:06;6.07;;;4.47;;
59366;SDS011;45163;47.690;11.770;2023-04-03T04:18:32;6.03;;;5.10;;
59366;SDS011;45163;47.690;11.770;2023-04-03T04:20:58;5.03;;;4.43;;
59366;SDS011;45163;47.690;11.770;2023-04-03T04:23:25;4.60;;;4.00;;
59366;SDS011;45163;47.690;11.770;2023-04-03T04:25:51;4.93;;;3.83;;
59366;SDS011;45163;47.690;11.770;2023-04-03T04:28:17;4.97;;;4.30;;
59366;SDS011;45163;47.690;11.770;2023-04-03T04:30:43;4.30;;;3.80;;
59366;SDS011;45163;47.690;11.770;2023-04-03T04:33:10;4.30;;;3.90;;
59366;SDS011;45163;47.690;11.770;2023-04-03T04:35:36;5.10;;;4.30;;
59366;SDS011;45163;47.690;11.770;2023-04-03T04:38:02;5.00;;;4.50;;
59366;SDS011;45163;47.690;11.770;2023-04-03T04:40:28;6.07;;;4.77;;
59366;SDS011;45163;47.690;11.770;2023-04-03T04:42:55;4.73;;;4.23;;
59366;SDS011;45163;47.690;11.770;2023-04-03T04:45:21;5.53;;;4.93;;
59366;SDS011;45163;47.690;11.770;2023-04-03T04:47:47;5.53;;;4.60;;
59366;SDS011;45163;47.690;11.770;2023-04-03T04:50:13;6.00;;;5.27;;
59366;SDS011;45163;47.690;11.770;2023-04-03T04:52:39;6.13;;;5.40;;
59366;SDS011;45163;47.690;11.770;2023-04-03T04:55:05;6.27;;;5.50;;
59366;SDS011;45163;47.690;11.770;2023-04-03T04:57:31;8.17;;;6.40;;
59366;SDS011;45163;47.690;11.770;2023-04-03T04:59:57;8.13;;;6.67;;
59366;SDS011;45163;47.690;11.770;2023-04-03T05:02:23;7.93;;;6.77;;
59366;SDS011;45163;47.690;11.770;2023-04-03T05:04:49;6.97;;;5.87;;
59366;SDS011;45163;47.690;11.770;2023-04-03T05:07:16;11.13;;;6.00;;
59366;SDS011;45163;47.690;11.770;2023-04-03T05:09:42;7.43;;;6.07;;
59366;SDS011;45163;47.690;11.770;2023-04-03T05:12:08;8.10;;;6.67;;
59366;SDS011;45163;47.690;11.770;2023-04-03T05:14:34;8.03;;;6.77;;
59366;SDS011;45163;47.690;11.770;2023-04-03T05:17:00;7.33;;;6.50;;
59366;SDS011;45163;47.690;11.770;2023-04-03T05:19:26;7.90;;;6.43;;
59366;SDS011;45163;47.690;11.770;2023-04-03T05:21:52;8.30;;;7.10;;
59366;SDS011;45163;47.690;11.770;2023-04-03T05:24:18;9.17;;;7.83;;
59366;SDS011;45163;47.690;11.770;2023-04-03T05:26:44;9.50;;;7.97;;
59366;SDS011;45163;47.690;11.770;2023-04-03T05:29:10;9.93;;;7.37;;
59366;SDS011;45163;47.690;11.770;2023-04-03T05:31:36;9.50;;;7.50;;
59366;SDS011;45163;47.690;11.770;2023-04-03T05:34:02;7.77;;;6.87;;
59366;SDS011;45163;47.690;11.770;2023-04-03T05:36:28;9.00;;;7.87;;
59366;SDS011;45163;47.690;11.770;2023-04-03T05:38:54;10.37;;;7.50;;
59366;SDS011;45163;47.690;11.770;2023-04-03T05:41:22;9.00;;;7.43;;
59366;SDS011;45163;47.690;11.770;2023-04-03T05:43:48;8.70;;;7.47;;
59366;SDS011;45163;47.690;11.770;2023-04-03T05:46:15;11.77;;;7.53;;
59366;SDS011;45163;47.690;11.770;2023-04-03T05:48:43;9.23;;;7.73;;
59366;SDS011;45163;47.690;11.770;2023-04-03T05:51:19;9.77;;;8.00;;
59366;SDS011;45163;47.690;11.770;2023-04-03T05:53:49;9.17;;;8.13;;
59366;SDS011;45163;47.690;11.770;2023-04-03T05:56:20;11.03;;;7.60;;
59366;SDS011;45163;47.690;11.770;2023-04-03T05:58:46;10.80;;;8.50;;
59366;SDS011;45163;47.690;11.770;2023-04-03T06:01:12;9.87;;;8.17;;
59366;SDS011;45163;47.690;11.770;2023-04-03T06:03:38;9.67;;;8.23;;
59366;SDS011;45163;47.690;11.770;2023-04-03T06:06:06;11.47;;;9.20;;
59366;SDS011;45163;47.690;11.770;2023-04-03T06:08:33;13.47;;;10.37;;
59366;SDS011;45163;47.690;11.770;2023-04-03T06:11:00;14.27;;;11.00;;
59366;SDS011;45163;47.690;11.770;2023-04-03T06:13:27;11.63;;;8.80;;
59366;SDS011;45163;47.690;11.770;2023-04-03T06:15:54;11.67;;;8.77;;
59366;SDS011;45163;47.690;11.770;2023-04-03T06:18:22;10.97;;;8.70;;
59366;SDS011;45163;47.690;11.770;2023-04-03T06:20:48;9.73;;;7.97;;
59366;SDS011;45163;47.690;11.770;2023-04-03T06:23:14;9.97;;;7.97;;
59366;SDS011;45163;47.690;11.770;2023-04-03T06:25:40;11.47;;;9.13;;
59366;SDS011;45163;47.690;11.770;2023-04-03T06:28:08;12.77;;;9.33;;
59366;SDS011;45163;47.690;11.770;2023-04-03T06:30:36;15.83;;;8.60;;
59366;SDS011;45163;47.690;11.770;2023-04-03T06:33:02;12.10;;;8.23;;
59366;SDS011;45163;47.690;11.770;2023-04-03T06:35:29;12.90;;;7.83;;
59366;SDS011;45163;47.690;11.770;2023-04-03T06:37:57;11.57;;;8.50;;
59366;SDS011;45163;47.690;11.770;2023-04-03T06:40:23;18.03;;;7.80;;
59366;SDS011;45163;47.690;11.770;2023-04-03T06:42:51;10.63;;;7.40;;
59366;SDS011;45163;47.690;11.770;2023-04-03T06:45:20;9.43;;;7.03;;
59366;SDS011;45163;47.690;11.770;2023-04-03T06:47:47;9.43;;;6.70;;
59366;SDS011;45163;47.690;11.770;2023-04-03T06:50:13;7.80;;;6.20;;
59366;SDS011;45163;47.690;11.770;2023-04-03T06:52:40;8.07;;;6.23;;
59366;SDS011;45163;47.690;11.770;2023-04-03T06:55:06;8.47;;;5.33;;
59366;SDS011;45163;47.690;11.770;2023-04-03T06:57:33;4.83;;;4.33;;
59366;SDS011;45163;47.690;11.770;2023-04-03T07:00:00;3.90;;;3.50;;
59366;SDS011;45163;47.690;11.770;2023-04-03T07:02:26;4.30;;;3.90;;
59366;SDS011;45163;47.690;11.770;2023-04-03T07:04:52;4.87;;;3.47;;
59366;SDS011;45163;47.690;11.770;2023-04-03T07:07:18;5.13;;;4.10;;
59366;SDS011;45163;47.690;11.770;2023-04-03T07:09:47;7.10;;;5.20;;
59366;SDS011;45163;47.690;11.770;2023-04-03T07:12:14;6.53;;;5.23;;
59366;SDS011;45163;47.690;11.770;2023-04-03T07:14:41;7.47;;;5.50;;
59366;SDS011;45163;47.690;11.770;2023-04-03T07:17:08;6.87;;;5.93;;
59366;SDS011;45163;47.690;11.770;2023-04-03T07:19:34;6.63;;;5.67;;
59366;SDS011;45163;47.690;11.770;2023-04-03T07:22:00;6.93;;;5.33;;
59366;SDS011;45163;47.690;11.770;2023-04-03T07:24:26;7.57;;;5.30;;
59366;SDS011;45163;47.690;11.770;2023-04-03T07:26:52;5.97;;;5.30;;
59366;SDS011;45163;47.690;11.770;2023-04-03T07:29:18;8.80;;;4.73;;
59366;SDS011;45163;47.690;11.770;2023-04-03T07:31:47;4.63;;;4.10;;
59366;SDS011;45163;47.690;11.770;2023-04-03T07:34:13;5.93;;;4.37;;
59366;SDS011;45163;47.690;11.770;2023-04-03T07:36:39;62.17;;;8.17;;
59366;SDS011;45163;47.690;11.770;2023-04-03T07:39:05;6.20;;;5.00;;
59366;SDS011;45163;47.690;11.770;2023-04-03T07:41:32;4.33;;;3.93;;
59366;SDS011;45163;47.690;11.770;2023-04-03T07:43:58;4.17;;;3.77;;
59366;SDS011;45163;47.690;11.770;2023-04-03T07:46:24;4.17;;;3.70;;
59366;SDS011;45163;47.690;11.770;2023-04-03T07:48:50;27.10;;;5.97;;
59366;SDS011;45163;47.690;11.770;2023-04-03T07:51:16;5.00;;;4.37;;
59366;SDS011;45163;47.690;11.770;2023-04-03T07:53:42;6.00;;;4.10;;
59366;SDS011;45163;47.690;11.770;2023-04-03T07:56:08;5.03;;;3.70;;
59366;SDS011;45163;47.690;11.770;2023-04-03T07:58:36;4.37;;;3.97;;
59366;SDS011;45163;47.690;11.770;2023-04-03T08:01:02;13.33;;;4.73;;
59366;SDS011;45163;47.690;11.770;2023-04-03T08:03:29;5.73;;;4.07;;
59366;SDS011;45163;47.690;11.770;2023-04-03T08:05:54;5.27;;;3.60;;
59366;SDS011;45163;47.690;11.770;2023-04-03T08:08:28;5.00;;;3.30;;
59366;SDS011;45163;47.690;11.770;2023-04-03T08:10:57;3.57;;;3.23;;
59366;SDS011;45163;47.690;11.770;2023-04-03T08:13:24;4.40;;;3.30;;
59366;SDS011;45163;47.690;11.770;2023-04-03T08:15:50;4.37;;;3.53;;
59366;SDS011;45163;47.690;11.770;2023-04-03T08:18:17;7.03;;;3.67;;
59366;SDS011;45163;47.690;11.770;2023-04-03T08:20:46;3.93;;;3.10;;
59366;SDS011;45163;47.690;11.770;2023-04-03T08:23:12;3.43;;;3.10;;
59366;SDS011;45163;47.690;11.770;2023-04-03T08:25:41;3.30;;;3.00;;
59366;SDS011;45163;47.690;11.770;2023-04-03T08:28:08;23.53;;;4.87;;
59366;SDS011;45163;47.690;11.770;2023-04-03T08:30:39;3.67;;;3.00;;
59366;SDS011;45163;47.690;11.770;2023-04-03T08:33:07;3.10;;;2.70;;
59366;SDS011;45163;47.690;11.770;2023-04-03T08:35:38;3.00;;;2.70;;
59366;SDS011;45163;47.690;11.770;2023-04-03T08:38:07;7.50;;;2.50;;
59366;SDS011;45163;47.690;11.770;2023-04-03T08:40:35;16.20;;;3.73;;
59366;SDS011;45163;47.690;11.770;2023-04-03T08:45:55;7.43;;;2.37;;
59366;SDS011;45163;47.690;11.770;2023-04-03T08:48:31;3.80;;;2.40;;
59366;SDS011;45163;47.690;11.770;2023-04-03T08:51:03;6.13;;;3.47;;
59366;SDS011;45163;47.690;11.770;2023-04-03T08:53:37;6.20;;;3.60;;
59366;SDS011;45163;47.690;11.770;2023-04-03T08:56:08;3.90;;;3.50;;
59366;SDS011;45163;47.690;11.770;2023-04-03T08:58:50;5.23;;;3.70;;
59366;SDS011;45163;47.690;11.770;2023-04-03T09:03:55;6.37;;;3.97;;
59366;SDS011;45163;47.690;11.770;2023-04-03T09:06:26;3.70;;;3.30;;
59366;SDS011;45163;47.690;11.770;2023-04-03T09:12:02;4.97;;;3.27;;
59366;SDS011;45163;47.690;11.770;2023-04-03T09:14:38;5.63;;;3.60;;
59366;SDS011;45163;47.690;11.770;2023-04-03T09:17:14;4.23;;;3.47;;
59366;SDS011;45163;47.690;11.770;2023-04-03T09:19:54;4.80;;;4.27;;
59366;SDS011;45163;47.690;11.770;2023-04-03T09:22:28;13.97;;;5.27;;
59366;SDS011;45163;47.690;11.770;2023-04-03T09:27:31;3.67;;;3.30;;
59366;SDS011;45163;47.690;11.770;2023-04-03T09:29:57;3.00;;;2.70;;
59366;SDS011;45163;47.690;11.770;2023-04-03T09:32:30;3.50;;;3.00;;
59366;SDS011;45163;47.690;11.770;2023-04-03T09:35:02;5.87;;;3.73;;
59366;SDS011;45163;47.690;11.770;2023-04-03T09:37:50;5.40;;;3.50;;
59366;SDS011;45163;47.690;11.770;2023-04-03T09:42:50;13.83;;;3.13;;
59366;SDS011;45163;47.690;11.770;2023-04-03T09:45:28;4.00;;;2.90;;
59366;SDS011;45163;47.690;11.770;2023-04-03T09:50:33;3.30;;;2.97;;
59366;SDS011;45163;47.690;11.770;2023-04-03T09:53:05;4.20;;;3.53;;
59366;SDS011;45163;47.690;11.770;2023-04-03T09:55:33;3.40;;;3.10;;
59366;SDS011;45163;47.690;11.770;2023-04-03T09:58:22;3.20;;;2.90;;
59366;SDS011;45163;47.690;11.770;2023-04-03T10:00:56;3.70;;;3.07;;
59366;SDS011;45163;47.690;11.770;2023-04-03T10:03:29;3.80;;;3.20;;
59366;SDS011;45163;47.690;11.770;2023-04-03T10:06:04;3.43;;;2.80;;
59366;SDS011;45163;47.690;11.770;2023-04-03T10:09:02;3.47;;;2.97;;
59366;SDS011;45163;47.690;11.770;2023-04-03T10:11:30;3.53;;;2.53;;
59366;SDS011;45163;47.690;11.770;2023-04-03T10:13:57;3.53;;;2.80;;
59366;SDS011;45163;47.690;11.770;2023-04-03T10:16:32;3.53;;;2.40;;
59366;SDS011;45163;47.690;11.770;2023-04-03T10:22:03;3.40;;;2.60;;
59366;SDS011;45163;47.690;11.770;2023-04-03T10:24:23;2.80;;;2.60;;
59366;SDS011;45163;47.690;11.770;2023-04-03T10:34:48;3.20;;;2.90;;
59366;SDS011;45163;47.690;11.770;2023-04-03T10:43:06;5.00;;;2.70;;
59366;SDS011;45163;47.690;11.770;2023-04-03T10:48:11;4.30;;;2.83;;
59366;SDS011;45163;47.690;11.770;2023-04-03T10:59:27;2.47;;;2.20;;
59366;SDS011;45163;47.690;11.770;2023-04-03T11:04:48;2.93;;;2.47;;
59366;SDS011;45163;47.690;11.770;2023-04-03T11:07:38;3.40;;;2.60;;
59366;SDS011;45163;47.690;11.770;2023-04-03T11:10:11;4.27;;;2.57;;
59366;SDS011;45163;47.690;11.770;2023-04-03T11:15:16;4.00;;;2.80;;
59366;SDS011;45163;47.690;11.770;2023-04-03T11:17:52;3.00;;;2.73;;
59366;SDS011;45163;47.690;11.770;2023-04-03T11:20:23;3.80;;;2.73;;
59366;SDS011;45163;47.690;11.770;2023-04-03T11:25:46;2.70;;;2.30;;
59366;SDS011;45163;47.690;11.770;2023-04-03T11:28:17;3.67;;;2.30;;
59366;SDS011;45163;47.690;11.770;2023-04-03T11:30:46;3.47;;;3.13;;
59366;SDS011;45163;47.690;11.770;2023-04-03T11:38:52;3.27;;;2.87;;
59366;SDS011;45163;47.690;11.770;2023-04-03T11:41:25;3.90;;;2.90;;
59366;SDS011;45163;47.690;11.770;2023-04-03T11:44:02;3.13;;;2.63;;
59366;SDS011;45163;47.690;11.770;2023-04-03T11:46:55;2.93;;;2.50;;
59366;SDS011;45163;47.690;11.770;2023-04-03T12:05:50;4.20;;;2.60;;
59366;SDS011;45163;47.690;11.770;2023-04-03T12:08:26;3.70;;;2.77;;
59366;SDS011;45163;47.690;11.770;2023-04-03T12:13:38;4.67;;;2.73;;
59366;SDS011;45163;47.690;11.770;2023-04-03T12:16:27;4.70;;;2.77;;
59366;SDS011;45163;47.690;11.770;2023-04-03T12:46:16;3.87;;;2.93;;
59366;SDS011;45163;47.690;11.770;2023-04-03T12:53:58;3.23;;;2.40;;
59366;SDS011;45163;47.690;11.770;2023-04-03T12:56:29;6.37;;;2.87;;
59366;SDS011;45163;47.690;11.770;2023-04-03T13:02:01;3.00;;;2.20;;
59366;SDS011;45163;47.690;11.770;2023-04-03T13:04:31;2.70;;;2.20;;
59366;SDS011;45163;47.690;11.770;2023-04-03T13:06:58;3.73;;;2.50;;
59366;SDS011;45163;47.690;11.770;2023-04-03T13:09:25;3.83;;;2.70;;
59366;SDS011;45163;47.690;11.770;2023-04-03T13:14:39;3.93;;;3.33;;
59366;SDS011;45163;47.690;11.770;2023-04-03T13:17:10;4.67;;;3.30;;
59366;SDS011;45163;47.690;11.770;2023-04-03T13:19:42;6.70;;;3.00;;
59366;SDS011;45163;47.690;11.770;2023-04-03T13:25:05;3.30;;;3.00;;
59366;SDS011;45163;47.690;11.770;2023-04-03T13:27:34;5.63;;;3.73;;
59366;SDS011;45163;47.690;11.770;2023-04-03T13:30:01;3.40;;;3.10;;
59366;SDS011;45163;47.690;11.770;2023-04-03T13:32:30;4.57;;;3.40;;
59366;SDS011;45163;47.690;11.770;2023-04-03T13:34:57;3.97;;;3.17;;
59366;SDS011;45163;47.690;11.770;2023-04-03T13:37:26;3.90;;;3.20;;
59366;SDS011;45163;47.690;11.770;2023-04-03T13:40:14;5.33;;;4.00;;
59366;SDS011;45163;47.690;11.770;2023-04-03T13:42:40;5.30;;;3.97;;
59366;SDS011;45163;47.690;11.770;2023-04-03T13:45:24;5.53;;;4.13;;
59366;SDS011;45163;47.690;11.770;2023-04-03T13:48:06;4.87;;;3.87;;
59366;SDS011;45163;47.690;11.770;2023-04-03T13:50:58;5.77;;;3.87;;
59366;SDS011;45163;47.690;11.770;2023-04-03T13:53:27;4.33;;;3.80;;
59366;SDS011;45163;47.690;11.770;2023-04-03T13:58:27;6.03;;;3.83;;
59366;SDS011;45163;47.690;11.770;2023-04-03T14:03:55;10.53;;;3.30;;
59366;SDS011;45163;47.690;11.770;2023-04-03T14:06:23;3.77;;;3.33;;
59366;SDS011;45163;47.690;11.770;2023-04-03T14:08:50;3.60;;;3.13;;
59366;SDS011;45163;47.690;11.770;2023-04-03T14:11:24;4.23;;;3.43;;
59366;SDS011;45163;47.690;11.770;2023-04-03T14:13:54;4.10;;;3.23;;
59366;SDS011;45163;47.690;11.770;2023-04-03T14:16:25;4.33;;;3.40;;
59366;SDS011;45163;47.690;11.770;2023-04-03T14:18:53;3.43;;;3.07;;
59366;SDS011;45163;47.690;11.770;2023-04-03T14:21:19;4.70;;;3.30;;
59366;SDS011;45163;47.690;11.770;2023-04-03T14:23:47;3.30;;;3.00;;
59366;SDS011;45163;47.690;11.770;2023-04-03T14:26:14;4.07;;;3.00;;
59366;SDS011;45163;47.690;11.770;2023-04-03T14:28:47;6.97;;;3.30;;
59366;SDS011;45163;47.690;11.770;2023-04-03T14:31:15;3.60;;;3.10;;
59366;SDS011;45163;47.690;11.770;2023-04-03T14:33:43;3.50;;;3.10;;
59366;SDS011;45163;47.690;11.770;2023-04-03T14:36:31;4.77;;;3.30;;
59366;SDS011;45163;47.690;11.770;2023-04-03T14:38:57;5.60;;;3.13;;
59366;SDS011;45163;47.690;11.770;2023-04-03T14:41:25;4.80;;;2.90;;
59366;SDS011;45163;47.690;11.770;2023-04-03T14:43:52;5.03;;;3.10;;
59366;SDS011;45163;47.690;11.770;2023-04-03T14:48:55;3.90;;;3.47;;
59366;SDS011;45163;47.690;11.770;2023-04-03T14:51:22;4.73;;;3.13;;
59366;SDS011;45163;47.690;11.770;2023-04-03T14:53:48;4.43;;;3.27;;
59366;SDS011;45163;47.690;11.770;2023-04-03T14:56:18;4.07;;;2.50;;
59366;SDS011;45163;47.690;11.770;2023-04-03T14:58:53;4.13;;;3.40;;
59366;SDS011;45163;47.690;11.770;2023-04-03T15:01:24;3.27;;;2.90;;
59366;SDS011;45163;47.690;11.770;2023-04-03T15:03:50;3.20;;;2.60;;
59366;SDS011;45163;47.690;11.770;2023-04-03T15:06:16;5.07;;;3.03;;
59366;SDS011;45163;47.690;11.770;2023-04-03T15:08:42;2.97;;;2.60;;
59366;SDS011;45163;47.690;11.770;2023-04-03T15:11:11;4.10;;;3.00;;
59366;SDS011;45163;47.690;11.770;2023-04-03T15:13:37;3.57;;;2.70;;
59366;SDS011;45163;47.690;11.770;2023-04-03T15:16:04;4.53;;;3.37;;
59366;SDS011;45163;47.690;11.770;2023-04-03T15:18:50;5.50;;;3.13;;
59366;SDS011;45163;47.690;11.770;2023-04-03T15:21:16;3.40;;;2.97;;
59366;SDS011;45163;47.690;11.770;2023-04-03T15:23:42;4.20;;;3.00;;
59366;SDS011;45163;47.690;11.770;2023-04-03T15:26:08;4.30;;;3.10;;
59366;SDS011;45163;47.690;11.770;2023-04-03T15:28:39;4.70;;;3.17;;
59366;SDS011;45163;47.690;11.770;2023-04-03T15:31:07;3.03;;;2.53;;
59366;SDS011;45163;47.690;11.770;2023-04-03T15:33:34;3.77;;;2.80;;
59366;SDS011;45163;47.690;11.770;2023-04-03T15:36:00;3.77;;;2.70;;
59366;SDS011;45163;47.690;11.770;2023-04-03T15:38:27;3.30;;;2.80;;
59366;SDS011;45163;47.690;11.770;2023-04-03T15:40:53;4.60;;;2.57;;
59366;SDS011;45163;47.690;11.770;2023-04-03T15:43:21;3.00;;;2.70;;
59366;SDS011;45163;47.690;11.770;2023-04-03T15:45:47;7.60;;;3.30;;
59366;SDS011;45163;47.690;11.770;2023-04-03T15:48:14;3.20;;;2.90;;
59366;SDS011;45163;47.690;11.770;2023-04-03T15:50:41;4.60;;;3.33;;
59366;SDS011;45163;47.690;11.770;2023-04-03T15:53:07;5.03;;;3.50;;
59366;SDS011;45163;47.690;11.770;2023-04-03T15:55:35;4.80;;;3.10;;
59366;SDS011;45163;47.690;11.770;2023-04-03T15:58:06;4.40;;;3.23;;
59366;SDS011;45163;47.690;11.770;2023-04-03T16:00:32;9.20;;;3.40;;
59366;SDS011;45163;47.690;11.770;2023-04-03T16:03:04;3.40;;;3.00;;
59366;SDS011;45163;47.690;11.770;2023-04-03T16:05:34;3.37;;;2.97;;
59366;SDS011;45163;47.690;11.770;2023-04-03T16:08:02;3.20;;;2.90;;
59366;SDS011;45163;47.690;11.770;2023-04-03T16:10:29;4.50;;;3.07;;
59366;SDS011;45163;47.690;11.770;2023-04-03T16:12:55;7.17;;;3.30;;
59366;SDS011;45163;47.690;11.770;2023-04-03T16:15:21;3.70;;;2.60;;
59366;SDS011;45163;47.690;11.770;2023-04-03T16:17:48;7.50;;;5.37;;
59366;SDS011;45163;47.690;11.770;2023-04-03T16:20:14;5.13;;;3.30;;
59366;SDS011;45163;47.690;11.770;2023-04-03T16:22:40;3.57;;;3.00;;
59366;SDS011;45163;47.690;11.770;2023-04-03T16:25:08;3.60;;;2.90;;
59366;SDS011;45163;47.690;11.770;2023-04-03T16:27:35;3.13;;;2.77;;
59366;SDS011;45163;47.690;11.770;2023-04-03T16:30:01;3.27;;;2.97;;
59366;SDS011;45163;47.690;11.770;2023-04-03T16:32:29;3.63;;;2.90;;
59366;SDS011;45163;47.690;11.770;2023-04-03T16:34:57;3.10;;;2.73;;
59366;SDS011;45163;47.690;11.770;2023-04-03T16:37:23;5.57;;;2.80;;
59366;SDS011;45163;47.690;11.770;2023-04-03T16:39:51;5.60;;;3.10;;
59366;SDS011;45163;47.690;11.770;2023-04-03T16:42:17;3.73;;;2.90;;
59366;SDS011;45163;47.690;11.770;2023-04-03T16:44:43;4.70;;;3.37;;
59366;SDS011;45163;47.690;11.770;2023-04-03T16:47:09;6.67;;;3.23;;
59366;SDS011;45163;47.690;11.770;2023-04-03T16:49:36;6.20;;;3.63;;
59366;SDS011;45163;47.690;11.770;2023-04-03T16:52:02;5.20;;;4.10;;
59366;SDS011;45163;47.690;11.770;2023-04-03T16:54:29;4.07;;;2.83;;
59366;SDS011;45163;47.690;11.770;2023-04-03T16:56:56;5.40;;;4.00;;
59366;SDS011;45163;47.690;11.770;2023-04-03T16:59:22;4.60;;;3.70;;